createdAt,value
2023-04-10T00:01:57.975Z,18.00
2023-04-10T00:05:01.151Z,22.33
2023-04-10T00:08:03.884Z,17.67
2023-04-10T00:11:06.509Z,21.00
2023-04-10T00:14:09.198Z,21.00
2023-04-10T00:17:11.577Z,22.00
2023-04-10T00:20:14.362Z,9.00
2023-04-10T00:23:16.715Z,19.67
2023-04-10T00:26:21.173Z,20.33
2023-04-10T00:29:24.417Z,23.67
2023-04-10T00:32:27.201Z,19.67
2023-04-10T00:35:29.716Z,17.67
2023-04-10T00:38:32.415Z,23.33
2023-04-10T00:41:35.175Z,23.00
2023-04-10T00:44:38.269Z,20.67
2023-04-10T00:47:41.155Z,19.33
2023-04-10T00:50:44.190Z,20.33
2023-04-10T00:53:54.835Z,20.00
2023-04-10T00:56:58.863Z,20.00
2023-04-10T01:00:01.361Z,17.67
2023-04-10T01:03:04.614Z,20.67
2023-04-10T01:06:07.451Z,22.67
2023-04-10T01:09:47.576Z,22.00
2023-04-10T01:13:09.536Z,22.00
2023-04-10T01:16:17.135Z,16.67
2023-04-10T01:19:30.232Z,24.00
2023-04-10T01:22:42.128Z,17.00
2023-04-10T01:25:59.566Z,20.00
2023-04-10T01:29:05.008Z,23.00
2023-04-10T01:32:18.230Z,18.67
2023-04-10T01:35:21.683Z,19.67
2023-04-10T01:38:24.867Z,21.33
2023-04-10T01:41:28.460Z,22.00
2023-04-10T01:44:34.997Z,20.33
2023-04-10T01:47:37.833Z,18.00
2023-04-10T01:50:41.301Z,22.00
2023-04-10T01:53:47.472Z,22.00
2023-04-10T01:56:54.309Z,19.00
2023-04-10T01:59:57.598Z,19.33
2023-04-10T02:03:00.547Z,23.00
2023-04-10T02:06:16.401Z,19.00
2023-04-10T02:09:47.992Z,21.00
2023-04-10T02:13:00.881Z,18.33
2023-04-10T02:16:05.404Z,21.00
2023-04-10T02:19:11.849Z,20.33
2023-04-10T02:22:14.395Z,21.00
2023-04-10T02:25:17.109Z,21.67
2023-04-10T02:28:19.476Z,21.33
2023-04-10T02:31:22.577Z,22.00
2023-04-10T02:34:25.072Z,22.00
2023-04-10T02:37:27.757Z,18.33
2023-04-10T02:40:30.197Z,20.33
2023-04-10T02:43:46.017Z,18.33
2023-04-10T02:46:48.583Z,22.00
2023-04-10T02:49:51.449Z,21.67
2023-04-10T02:52:55.334Z,11.00
2023-04-10T02:55:58.067Z,22.00
2023-04-10T02:59:00.867Z,24.00
2023-04-10T03:02:04.518Z,22.00
2023-04-10T03:05:10.232Z,23.33
2023-04-10T03:08:15.343Z,20.00
2023-04-10T03:11:17.756Z,20.33
2023-04-10T03:14:20.690Z,21.00
2023-04-10T03:17:23.323Z,19.33
2023-04-10T03:20:26.789Z,20.67
2023-04-10T03:23:29.317Z,19.33
2023-04-10T03:26:33.331Z,20.00
2023-04-10T03:29:36.062Z,21.67
2023-04-10T03:32:39.430Z,17.00
2023-04-10T03:35:43.249Z,20.33
2023-04-10T03:38:45.984Z,19.67
2023-04-10T03:41:49.331Z,20.00
2023-04-10T03:44:52.076Z,20.33
2023-04-10T03:47:56.222Z,20.67
2023-04-10T03:50:59.437Z,18.00
2023-04-10T03:54:01.857Z,20.33
2023-04-10T03:57:04.615Z,18.00
2023-04-10T04:00:09.051Z,18.00
2023-04-10T04:03:24.120Z,18.00
2023-04-10T04:06:46.430Z,20.67
2023-04-10T04:10:12.608Z,18.67
2023-04-10T04:13:37.942Z,20.67
2023-04-10T04:16:44.822Z,20.00
2023-04-10T04:20:06.652Z,20.00
2023-04-10T04:23:18.402Z,20.00
2023-04-10T04:26:40.808Z,17.00
2023-04-10T04:30:06.701Z,17.00
2023-04-10T04:33:19.945Z,15.33
2023-04-10T04:36:34.000Z,20.00
2023-04-10T04:39:50.103Z,20.00
2023-04-10T04:43:09.773Z,21.33
2023-04-10T04:46:32.670Z,21.33
2023-04-10T04:49:53.997Z,18.33
2023-04-10T04:53:15.200Z,20.00
2023-04-10T04:56:30.854Z,17.00
2023-04-10T04:59:44.000Z,17.33
2023-04-10T05:03:22.708Z,17.67
2023-04-10T05:06:48.245Z,17.33
2023-04-10T05:10:09.088Z,20.33
2023-04-10T05:13:15.816Z,24.00
2023-04-10T05:16:44.313Z,20.33
2023-04-10T05:19:53.018Z,19.33
2023-04-10T05:23:14.309Z,20.67
2023-04-10T05:26:32.609Z,24.00
2023-04-10T05:30:08.017Z,17.33
2023-04-10T05:33:38.753Z,18.00
2023-04-10T05:36:51.174Z,21.00
2023-04-10T05:40:13.875Z,22.33
2023-04-10T05:43:32.965Z,22.00
2023-04-10T05:47:07.365Z,20.33
2023-04-10T05:50:10.843Z,23.00
2023-04-10T05:53:33.000Z,19.00
2023-04-10T05:56:53.824Z,24.33
2023-04-10T06:00:16.524Z,20.67
2023-04-10T06:03:42.214Z,23.67
2023-04-10T06:06:45.305Z,27.00
2023-04-10T06:09:48.065Z,25.33
2023-04-10T06:12:50.504Z,19.50
2023-04-10T06:15:56.380Z,22.00
2023-04-10T06:18:59.756Z,21.75
2023-04-10T06:22:02.525Z,23.00
2023-04-10T06:25:05.734Z,23.00
2023-04-10T06:28:08.904Z,21.50
2023-04-10T06:31:15.372Z,22.75
2023-04-10T06:34:18.178Z,20.75
2023-04-10T06:37:37.134Z,23.50
2023-04-10T06:40:41.702Z,18.75
2023-04-10T06:43:43.958Z,19.50
2023-04-10T06:46:46.850Z,22.50
2023-04-10T06:49:49.237Z,21.75
2023-04-10T06:52:53.514Z,20.75
2023-04-10T06:55:57.405Z,21.75
2023-04-10T06:59:00.150Z,15.50
2023-04-10T07:02:07.597Z,19.25
2023-04-10T07:05:10.498Z,20.00
2023-04-10T07:08:12.862Z,18.50
2023-04-10T07:11:15.616Z,20.00
2023-04-10T07:14:18.673Z,19.25
2023-04-10T07:17:22.070Z,17.25
2023-04-10T07:20:25.567Z,0.00
2023-04-10T07:23:28.485Z,16.50
2023-04-10T07:26:31.042Z,18.25
2023-04-10T07:29:33.984Z,16.75
2023-04-10T07:32:40.081Z,17.25
2023-04-10T07:35:43.195Z,16.25
2023-04-10T07:38:45.885Z,16.00
2023-04-10T07:41:48.621Z,16.00
2023-04-10T07:44:51.546Z,17.00
2023-04-10T07:47:54.549Z,16.00
2023-04-10T07:50:56.879Z,13.25
2023-04-10T07:54:00.163Z,11.75
2023-04-10T07:57:02.638Z,13.00
2023-04-10T08:00:06.237Z,13.75
2023-04-10T08:03:16.257Z,10.00
2023-04-10T08:06:19.277Z,11.00
2023-04-10T08:09:22.073Z,13.00
2023-04-10T08:12:25.044Z,13.00
2023-04-10T08:15:27.518Z,14.00
2023-04-10T08:18:30.600Z,12.00
2023-04-10T08:21:33.422Z,15.00
2023-04-10T08:24:36.255Z,14.00
2023-04-10T08:27:38.596Z,13.00
2023-04-10T08:30:41.373Z,12.50
2023-04-10T08:33:43.826Z,13.00
2023-04-10T08:36:47.546Z,14.00
2023-04-10T08:39:49.968Z,14.25
2023-04-10T08:42:52.841Z,13.00
2023-04-10T08:45:56.564Z,12.00
2023-04-10T08:49:04.170Z,11.75
2023-04-10T08:52:15.776Z,13.25
2023-04-10T08:55:19.153Z,14.00
2023-04-10T08:58:24.365Z,14.50
2023-04-10T09:01:27.337Z,10.75
2023-04-10T09:04:29.955Z,11.25
2023-04-10T09:07:32.848Z,12.50
2023-04-10T09:10:35.461Z,21.50
2023-04-10T09:13:40.700Z,13.00
2023-04-10T09:16:43.123Z,13.75
2023-04-10T09:19:53.847Z,12.00
2023-04-10T09:22:56.283Z,13.50
2023-04-10T09:25:58.993Z,11.00
2023-04-10T09:29:04.967Z,10.00
2023-04-10T09:32:07.785Z,10.00
2023-04-10T09:35:12.455Z,10.00
2023-04-10T09:38:19.444Z,12.33
2023-04-10T09:41:21.880Z,8.00
2023-04-10T09:44:37.549Z,10.67
2023-04-10T09:47:39.918Z,12.00
2023-04-10T09:50:42.758Z,10.00
2023-04-10T09:53:51.396Z,11.00
2023-04-10T09:56:54.323Z,8.00
2023-04-10T09:59:58.990Z,9.00
2023-04-10T10:03:04.272Z,9.00
2023-04-10T10:06:07.196Z,9.00
2023-04-10T10:09:09.957Z,10.00
2023-04-10T10:12:13.986Z,10.00
2023-04-10T10:15:26.028Z,9.00
2023-04-10T10:18:59.322Z,7.33
2023-04-10T10:22:02.861Z,7.33
2023-04-10T10:25:05.716Z,7.00
2023-04-10T10:28:13.094Z,8.00
2023-04-10T10:31:17.768Z,7.33
2023-04-10T10:34:22.101Z,9.33
2023-04-10T10:37:24.548Z,8.00
2023-04-10T10:40:34.472Z,8.00
2023-04-10T10:43:47.685Z,8.00
2023-04-10T10:47:29.692Z,7.67
2023-04-10T10:50:56.647Z,8.33
2023-04-10T10:53:59.449Z,8.00
2023-04-10T10:57:05.707Z,8.00
2023-04-10T11:00:09.186Z,8.00
2023-04-10T11:03:11.680Z,9.00
2023-04-10T11:06:21.905Z,6.33
2023-04-10T11:09:53.490Z,6.33
2023-04-10T11:13:16.239Z,6.00
2023-04-10T11:16:20.233Z,6.00
2023-04-10T11:19:25.721Z,9.00
2023-04-10T11:22:28.329Z,9.00
2023-04-10T11:25:52.182Z,8.00
2023-04-10T11:28:56.117Z,6.67
2023-04-10T11:32:03.369Z,7.00
2023-04-10T11:35:06.604Z,4.67
2023-04-10T11:38:15.416Z,7.00
2023-04-10T11:41:17.764Z,6.00
2023-04-10T11:44:32.800Z,7.00
2023-04-10T11:47:35.536Z,7.67
2023-04-10T11:50:38.451Z,6.67
2023-04-10T11:53:42.067Z,7.00
2023-04-10T11:56:47.434Z,7.00
2023-04-10T11:59:51.522Z,7.00
2023-04-10T12:02:54.674Z,6.00
2023-04-10T12:05:58.026Z,7.67
2023-04-10T12:09:00.896Z,7.33
2023-04-10T12:12:05.605Z,7.00
2023-04-10T12:15:28.312Z,7.00
2023-04-10T12:18:32.401Z,8.00
2023-04-10T12:21:39.142Z,7.00
2023-04-10T12:24:49.643Z,7.00
2023-04-10T12:27:52.503Z,7.00
2023-04-10T12:30:55.382Z,8.00
2023-04-10T12:33:59.296Z,8.33
2023-04-10T12:37:02.405Z,6.67
2023-04-10T12:40:08.699Z,6.00
2023-04-10T12:43:11.461Z,7.00
2023-04-10T12:46:27.265Z,9.00
2023-04-10T12:49:29.727Z,7.33
2023-04-10T12:52:32.802Z,5.00
2023-04-10T12:55:35.294Z,8.00
2023-04-10T12:58:38.623Z,7.00
2023-04-10T13:01:41.328Z,8.00
2023-04-10T13:04:44.327Z,6.67
2023-04-10T13:07:46.887Z,7.00
2023-04-10T13:10:50.728Z,6.67
2023-04-10T13:13:53.270Z,6.33
2023-04-10T13:16:55.969Z,5.67
2023-04-10T13:19:58.538Z,8.00
2023-04-10T13:23:03.099Z,8.00
2023-04-10T13:26:06.036Z,7.00
2023-04-10T13:29:08.971Z,7.00
2023-04-10T13:32:11.639Z,8.00
2023-04-10T13:35:14.322Z,7.00
2023-04-10T13:38:19.925Z,8.00
2023-04-10T13:41:24.063Z,7.33
2023-04-10T13:44:26.810Z,6.67
2023-04-10T13:47:29.617Z,7.00
2023-04-10T13:50:32.304Z,6.00
2023-04-10T13:53:37.979Z,7.00
2023-04-10T13:56:41.468Z,7.67
2023-04-10T13:59:44.087Z,7.00
2023-04-10T14:02:46.773Z,7.67
2023-04-10T14:05:50.835Z,9.00
2023-04-10T14:08:54.763Z,9.00
2023-04-10T14:11:58.143Z,7.67
2023-04-10T14:15:00.429Z,6.67
2023-04-10T14:18:03.641Z,8.00
2023-04-10T14:21:06.445Z,5.00
2023-04-10T14:24:09.187Z,9.00
2023-04-10T14:27:13.288Z,6.33
2023-04-10T14:30:16.341Z,6.00
2023-04-10T14:33:20.447Z,7.00
2023-04-10T14:36:23.866Z,6.33
2023-04-10T14:39:26.569Z,6.00
2023-04-10T14:42:29.217Z,7.00
2023-04-10T14:45:32.872Z,7.33
2023-04-10T14:48:36.473Z,7.00
2023-04-10T14:51:38.986Z,7.33
2023-04-10T14:54:41.707Z,6.33
2023-04-10T14:57:44.202Z,6.67
2023-04-10T15:00:47.370Z,6.67
2023-04-10T15:03:49.895Z,9.33
2023-04-10T15:06:52.711Z,7.00
2023-04-10T15:09:58.686Z,7.67
2023-04-10T15:13:01.464Z,7.00
2023-04-10T15:16:04.466Z,6.00
2023-04-10T15:19:07.334Z,8.00
2023-04-10T15:22:09.745Z,7.67
2023-04-10T15:25:12.630Z,6.33
2023-04-10T15:28:15.020Z,9.00
2023-04-10T15:31:17.855Z,7.67
2023-04-10T15:34:20.232Z,7.00
2023-04-10T15:37:25.475Z,9.00
2023-04-10T15:40:28.865Z,8.00
2023-04-10T15:43:31.565Z,8.00
2023-04-10T15:46:34.478Z,7.00
2023-04-10T15:49:38.670Z,9.00
2023-04-10T15:52:41.491Z,7.00
2023-04-10T15:55:44.306Z,9.00
2023-04-10T15:58:46.905Z,7.00
2023-04-10T16:01:49.807Z,7.67
2023-04-10T16:04:53.054Z,8.00
2023-04-10T16:07:57.025Z,8.00
2023-04-10T16:10:59.422Z,9.00
2023-04-10T16:14:02.190Z,8.00
2023-04-10T16:17:04.731Z,8.00
2023-04-10T16:20:08.058Z,8.25
2023-04-10T16:23:10.446Z,9.00
2023-04-10T16:26:13.167Z,7.00
2023-04-10T16:29:16.348Z,8.00
2023-04-10T16:32:20.763Z,7.00
2023-04-10T16:35:23.177Z,8.00
2023-04-10T16:38:25.862Z,8.75
2023-04-10T16:41:28.683Z,6.25
2023-04-10T16:44:34.554Z,7.25
2023-04-10T16:47:37.496Z,9.00
2023-04-10T16:50:40.316Z,7.50
2023-04-10T16:53:42.828Z,8.50
2023-04-10T16:56:46.034Z,8.00
2023-04-10T16:59:48.627Z,8.50
2023-04-10T17:02:51.452Z,8.25
2023-04-10T17:05:55.288Z,8.00
2023-04-10T17:08:58.330Z,9.25
2023-04-10T17:12:01.982Z,8.00
2023-04-10T17:15:05.215Z,10.00
2023-04-10T17:18:08.190Z,8.75
2023-04-10T17:21:12.817Z,6.00
2023-04-10T17:24:15.451Z,7.00
2023-04-10T17:27:18.269Z,9.25
2023-04-10T17:30:21.060Z,9.75
2023-04-10T17:33:23.976Z,9.25
2023-04-10T17:36:27.012Z,10.00
2023-04-10T17:39:30.600Z,10.75
2023-04-10T17:42:33.216Z,9.00
2023-04-10T17:45:38.623Z,10.75
2023-04-10T17:48:45.366Z,9.00
2023-04-10T17:51:48.985Z,5.00
2023-04-10T17:54:51.684Z,10.00
2023-04-10T17:57:54.682Z,11.50
2023-04-10T18:00:57.339Z,11.00
2023-04-10T18:04:02.938Z,10.00
2023-04-10T18:07:05.802Z,12.00
2023-04-10T18:10:11.409Z,12.00
2023-04-10T18:13:14.640Z,10.75
2023-04-10T18:16:19.161Z,11.00
2023-04-10T18:19:22.086Z,10.25
2023-04-10T18:22:25.808Z,11.75
2023-04-10T18:25:29.087Z,12.50
2023-04-10T18:28:32.111Z,8.50
2023-04-10T18:31:35.030Z,11.00
2023-04-10T18:34:38.068Z,12.00
2023-04-10T18:37:42.838Z,13.75
2023-04-10T18:40:46.002Z,14.50
2023-04-10T18:43:57.844Z,14.75
2023-04-10T18:47:07.389Z,14.00
2023-04-10T18:50:11.966Z,17.75
2023-04-10T18:53:15.201Z,14.75
2023-04-10T18:56:19.134Z,15.00
2023-04-10T18:59:23.304Z,18.00
2023-04-10T19:02:28.088Z,20.00
2023-04-10T19:05:33.419Z,17.00
2023-04-10T19:08:37.106Z,16.75
2023-04-10T19:11:41.234Z,18.25
2023-04-10T19:14:44.695Z,18.75
2023-04-10T19:17:48.345Z,19.25
2023-04-10T19:20:53.208Z,19.00
2023-04-10T19:23:57.668Z,23.00
2023-04-10T19:27:03.150Z,20.00
2023-04-10T19:30:07.492Z,17.00
2023-04-10T19:33:10.315Z,19.50
2023-04-10T19:36:16.704Z,16.75
2023-04-10T19:39:19.522Z,22.50
2023-04-10T19:42:22.839Z,21.75
2023-04-10T19:45:28.041Z,19.50
2023-04-10T19:48:31.709Z,21.25
2023-04-10T19:51:34.608Z,23.25
2023-04-10T19:54:38.303Z,20.75
2023-04-10T19:57:40.891Z,22.00
2023-04-10T20:00:43.759Z,21.25
2023-04-10T20:03:46.910Z,19.50
2023-04-10T20:06:50.072Z,13.75
2023-04-10T20:09:52.955Z,20.00
2023-04-10T20:12:55.884Z,16.25
2023-04-10T20:15:58.518Z,21.00
2023-04-10T20:19:01.858Z,16.50
2023-04-10T20:22:04.414Z,21.25
2023-04-10T20:25:07.968Z,20.25
2023-04-10T20:28:13.089Z,16.50
2023-04-10T20:31:15.967Z,20.00
2023-04-10T20:34:18.501Z,20.75
2023-04-10T20:37:23.049Z,20.75
2023-04-10T20:40:25.663Z,20.00
2023-04-10T20:43:28.506Z,20.50
2023-04-10T20:46:30.961Z,20.00
2023-04-10T20:49:34.758Z,20.25
2023-04-10T20:52:37.280Z,22.00
2023-04-10T20:55:40.190Z,20.25
2023-04-10T20:58:42.544Z,19.25
2023-04-10T21:01:45.403Z,18.00
2023-04-10T21:04:47.907Z,23.00
2023-04-10T21:07:50.705Z,19.75
2023-04-10T21:10:53.233Z,21.75
2023-04-10T21:13:56.024Z,20.00
2023-04-10T21:16:58.625Z,22.00
2023-04-10T21:20:01.852Z,21.75
2023-04-10T21:23:04.298Z,22.00
2023-04-10T21:26:07.431Z,24.75
2023-04-10T21:29:09.938Z,22.00
2023-04-10T21:32:12.639Z,23.00
2023-04-10T21:35:15.154Z,23.00
2023-04-10T21:38:17.825Z,23.25
2023-04-10T21:41:20.326Z,22.00
2023-04-10T21:44:23.173Z,24.00
2023-04-10T21:47:25.965Z,25.25
2023-04-10T21:50:28.969Z,22.25
2023-04-10T21:53:31.536Z,23.50
2023-04-10T21:56:36.959Z,23.75
2023-04-10T21:59:40.139Z,24.25
2023-04-10T22:02:43.197Z,22.00
2023-04-10T22:05:46.471Z,18.25
2023-04-10T22:08:49.293Z,22.50
2023-04-10T22:11:51.833Z,20.25
2023-04-10T22:14:54.685Z,18.00
2023-04-10T22:17:57.236Z,23.67
2023-04-10T22:21:00.175Z,22.00
2023-04-10T22:24:03.097Z,22.25
2023-04-10T22:27:05.900Z,22.00
2023-04-10T22:30:10.026Z,21.00
2023-04-10T22:33:13.834Z,21.33
2023-04-10T22:36:16.310Z,21.67
2023-04-10T22:39:19.214Z,23.67
2023-04-10T22:42:22.057Z,22.67
2023-04-10T22:45:24.836Z,23.67
2023-04-10T22:48:27.344Z,22.33
2023-04-10T22:51:30.265Z,20.33
2023-04-10T22:54:33.978Z,23.67
2023-04-10T22:57:36.728Z,21.67
2023-04-10T23:00:39.044Z,20.00
2023-04-10T23:03:41.879Z,21.67
2023-04-10T23:06:44.301Z,21.00
2023-04-10T23:09:46.989Z,21.67
2023-04-10T23:12:49.405Z,21.67
2023-04-10T23:15:54.128Z,21.67
2023-04-10T23:18:56.757Z,26.00
2023-04-10T23:21:59.831Z,25.33
2023-04-10T23:25:02.289Z,23.00
2023-04-10T23:28:05.293Z,23.67
2023-04-10T23:31:09.287Z,26.67
2023-04-10T23:34:11.979Z,25.00
2023-04-10T23:37:14.455Z,26.00
2023-04-10T23:40:18.376Z,27.00
2023-04-10T23:43:20.891Z,27.00
2023-04-10T23:46:23.704Z,27.00
2023-04-10T23:49:26.241Z,27.33
2023-04-10T23:52:29.259Z,26.00
2023-04-10T23:55:31.809Z,23.00
2023-04-10T23:58:34.548Z,27.00
